createdAt,value
2019-03-25T00:00:09.125Z,408.17
2019-03-25T00:01:09.098Z,409.29
2019-03-25T00:02:09.113Z,408.61
2019-03-25T00:03:09.081Z,408.98
2019-03-25T00:04:09.066Z,408.23
2019-03-25T00:05:09.088Z,408.73
2019-03-25T00:06:09.040Z,407.83
2019-03-25T00:07:09.037Z,409.92
2019-03-25T00:08:09.019Z,408.99
2019-03-25T00:09:09.006Z,408.60
2019-03-25T00:10:09.039Z,408.73
2019-03-25T00:11:08.991Z,409.26
2019-03-25T00:12:08.986Z,410.34
2019-03-25T00:13:08.972Z,407.98
2019-03-25T00:14:08.955Z,408.25
2019-03-25T00:15:08.940Z,408.46
2019-03-25T00:16:08.954Z,409.37
2019-03-25T00:17:08.927Z,408.11
2019-03-25T00:18:08.902Z,408.06
2019-03-25T00:19:08.899Z,407.76
2019-03-25T00:20:08.886Z,408.53
2019-03-25T00:21:08.901Z,407.93
2019-03-25T00:22:08.870Z,409.24
2019-03-25T00:23:08.860Z,407.74
2019-03-25T00:24:08.849Z,408.07
2019-03-25T00:25:08.864Z,409.07
2019-03-25T00:26:08.818Z,408.36
2019-03-25T00:27:08.831Z,408.15
2019-03-25T00:28:08.805Z,408.20
2019-03-25T00:29:08.788Z,408.50
2019-03-25T00:30:08.789Z,407.92
2019-03-25T00:31:08.775Z,408.80
2019-03-25T00:32:08.783Z,408.72
2019-03-25T00:33:08.742Z,409.24
2019-03-25T00:34:08.746Z,408.12
2019-03-25T00:35:08.735Z,408.63
2019-03-25T00:36:08.716Z,407.20
2019-03-25T00:37:08.709Z,408.14
2019-03-25T00:38:08.716Z,409.05
2019-03-25T00:39:08.694Z,409.21
2019-03-25T00:40:08.666Z,408.59
2019-03-25T00:41:08.651Z,408.55
2019-03-25T00:42:08.681Z,408.23
2019-03-25T00:43:08.645Z,407.70
2019-03-25T00:44:08.651Z,409.24
2019-03-25T00:45:08.621Z,407.96
2019-03-25T00:46:08.594Z,408.73
2019-03-25T00:47:08.614Z,408.26
2019-03-25T00:48:08.590Z,408.35
2019-03-25T00:49:08.602Z,407.63
2019-03-25T00:50:08.559Z,408.33
2019-03-25T00:51:08.555Z,408.65
2019-03-25T00:52:08.534Z,408.60
2019-03-25T00:53:08.539Z,408.69
2019-03-25T00:54:08.523Z,408.38
2019-03-25T00:55:08.526Z,408.71
2019-03-25T00:56:08.502Z,408.36
2019-03-25T00:57:08.494Z,407.81
2019-03-25T00:58:08.488Z,408.82
2019-03-25T00:59:08.459Z,408.71
2019-03-25T01:00:08.451Z,407.30
2019-03-25T01:01:08.459Z,407.46
2019-03-25T01:02:08.439Z,408.66
2019-03-25T01:03:08.431Z,408.65
2019-03-25T01:04:08.395Z,408.60
2019-03-25T01:05:08.404Z,407.98
2019-03-25T01:06:08.422Z,408.25
2019-03-25T01:07:08.382Z,408.06
2019-03-25T01:08:08.371Z,408.56
2019-03-25T01:09:08.375Z,407.90
2019-03-25T01:10:08.343Z,407.53
2019-03-25T01:11:08.328Z,408.40
2019-03-25T01:12:08.334Z,408.10
2019-03-25T01:13:08.299Z,407.85
2019-03-25T01:14:08.307Z,408.31
2019-03-25T01:15:08.294Z,408.06
2019-03-25T01:16:08.285Z,408.51
2019-03-25T01:17:08.301Z,407.86
2019-03-25T01:18:16.845Z,408.43
2019-03-25T01:19:09.238Z,408.17
2019-03-25T01:20:08.275Z,407.36
2019-03-25T01:21:08.222Z,407.45
2019-03-25T01:22:08.202Z,407.21
2019-03-25T01:23:08.228Z,408.05
2019-03-25T01:24:08.181Z,407.60
2019-03-25T01:25:08.170Z,407.60
2019-03-25T01:26:08.175Z,408.89
2019-03-25T01:27:08.162Z,407.67
2019-03-25T01:28:08.158Z,408.67
2019-03-25T01:29:08.162Z,407.88
2019-03-25T01:30:08.118Z,408.01
2019-03-25T01:31:08.102Z,407.85
2019-03-25T01:32:08.102Z,407.66
2019-03-25T01:33:08.086Z,407.42
2019-03-25T01:34:08.114Z,407.75
2019-03-25T01:35:08.070Z,408.27
2019-03-25T01:36:08.057Z,407.20
2019-03-25T01:37:08.049Z,408.38
2019-03-25T01:38:08.037Z,407.66
2019-03-25T01:39:08.028Z,409.54
2019-03-25T01:40:08.046Z,407.61
2019-03-25T01:41:08.019Z,407.51
2019-03-25T01:42:07.991Z,407.72
2019-03-25T01:43:07.974Z,407.86
2019-03-25T01:44:07.964Z,408.00
2019-03-25T01:45:07.948Z,407.82
2019-03-25T01:46:07.975Z,407.77
2019-03-25T01:47:07.943Z,407.79
2019-03-25T01:48:07.931Z,409.11
2019-03-25T01:49:07.914Z,406.93
2019-03-25T01:50:07.909Z,408.16
2019-03-25T01:51:07.911Z,407.26
2019-03-25T01:52:07.892Z,406.70
2019-03-25T01:53:07.901Z,407.46
2019-03-25T01:54:07.856Z,407.20
2019-03-25T01:55:13.314Z,408.95
2019-03-25T01:56:08.840Z,408.38
2019-03-25T01:57:07.851Z,407.34
2019-03-25T01:58:07.817Z,407.37
2019-03-25T01:59:07.807Z,406.88
2019-03-25T02:00:07.823Z,407.57
2019-03-25T02:01:07.789Z,408.79
2019-03-25T02:02:07.766Z,407.31
2019-03-25T02:03:07.794Z,407.55
2019-03-25T02:04:07.751Z,407.50
2019-03-25T02:05:07.732Z,408.90
2019-03-25T02:06:07.736Z,407.86
2019-03-25T02:07:07.734Z,407.58
2019-03-25T02:08:07.704Z,407.33
2019-03-25T02:09:07.714Z,407.94
2019-03-25T02:10:07.685Z,408.33
2019-03-25T02:11:07.670Z,408.16
2019-03-25T02:12:07.700Z,406.80
2019-03-25T02:13:07.654Z,407.90
2019-03-25T02:14:07.648Z,407.40
2019-03-25T02:15:07.626Z,407.40
2019-03-25T02:16:07.643Z,406.51
2019-03-25T02:17:07.613Z,408.18
2019-03-25T02:18:07.602Z,409.01
2019-03-25T02:19:07.596Z,407.19
2019-03-25T02:20:07.587Z,407.98
2019-03-25T02:21:07.596Z,408.57
2019-03-25T02:22:07.542Z,406.53
2019-03-25T02:23:07.766Z,408.48
2019-03-25T02:24:07.538Z,407.53
2019-03-25T02:25:07.517Z,407.57
2019-03-25T02:26:07.519Z,407.48
2019-03-25T02:27:07.522Z,406.64
2019-03-25T02:28:07.484Z,409.14
2019-03-25T02:29:07.472Z,407.67
2019-03-25T02:30:07.481Z,407.61
2019-03-25T02:31:07.465Z,407.47
2019-03-25T02:32:07.446Z,409.05
2019-03-25T02:33:07.456Z,408.07
2019-03-25T02:34:07.419Z,406.43
2019-03-25T02:35:07.433Z,407.54
2019-03-25T02:36:07.414Z,407.14
2019-03-25T02:37:07.392Z,407.76
2019-03-25T02:38:07.406Z,406.88
2019-03-25T02:39:07.372Z,407.20
2019-03-25T02:40:07.350Z,407.08
2019-03-25T02:41:07.339Z,407.07
2019-03-25T02:42:07.338Z,407.15
2019-03-25T02:43:07.340Z,407.66
2019-03-25T02:44:07.350Z,407.15
2019-03-25T02:45:07.304Z,407.19
2019-03-25T02:46:07.295Z,406.82
2019-03-25T02:47:07.282Z,407.88
2019-03-25T02:48:07.263Z,406.85
2019-03-25T02:49:07.268Z,407.34
2019-03-25T02:50:07.255Z,407.82
2019-03-25T02:51:07.275Z,406.83
2019-03-25T02:52:07.233Z,406.83
2019-03-25T02:53:07.214Z,407.01
2019-03-25T02:54:07.204Z,407.11
2019-03-25T02:55:07.192Z,407.05
2019-03-25T02:56:07.181Z,407.02
2019-03-25T02:57:07.200Z,408.02
2019-03-25T02:58:07.159Z,407.49
2019-03-25T02:59:07.138Z,408.07
2019-03-25T03:00:07.147Z,407.94
2019-03-25T03:01:07.126Z,408.87
2019-03-25T03:02:07.140Z,408.40
2019-03-25T03:03:07.112Z,408.15
2019-03-25T03:04:07.114Z,407.44
2019-03-25T03:05:07.107Z,407.98
2019-03-25T03:06:07.065Z,406.30
2019-03-25T03:07:07.053Z,406.50
2019-03-25T03:08:07.082Z,407.48
2019-03-25T03:09:07.045Z,407.55
2019-03-25T03:10:07.029Z,406.71
2019-03-25T03:11:07.049Z,407.17
2019-03-25T03:12:07.003Z,407.71
2019-03-25T03:13:06.986Z,407.00
2019-03-25T03:14:07.010Z,408.05
2019-03-25T03:15:06.986Z,407.28
2019-03-25T03:16:06.963Z,407.19
2019-03-25T03:17:06.959Z,407.41
2019-03-25T03:18:06.935Z,406.63
2019-03-25T03:19:06.924Z,407.08
2019-03-25T03:20:06.955Z,407.24
2019-03-25T03:21:06.906Z,406.81
2019-03-25T03:22:06.924Z,407.74
2019-03-25T03:23:06.888Z,408.02
2019-03-25T03:24:06.897Z,406.91
2019-03-25T03:25:06.874Z,407.70
2019-03-25T03:26:06.877Z,407.63
2019-03-25T03:27:06.834Z,408.13
2019-03-25T03:28:06.849Z,408.75
2019-03-25T03:29:06.822Z,407.26
2019-03-25T03:30:06.816Z,407.03
2019-03-25T03:31:06.842Z,407.66
2019-03-25T03:32:06.840Z,408.22
2019-03-25T03:33:06.773Z,409.18
2019-03-25T03:34:06.840Z,407.90
2019-03-25T03:35:06.778Z,407.44
2019-03-25T03:36:06.735Z,408.19
2019-03-25T03:37:06.758Z,407.14
2019-03-25T03:38:06.748Z,407.70
2019-03-25T03:39:06.724Z,407.03
2019-03-25T03:40:06.715Z,407.04
2019-03-25T03:41:06.694Z,407.63
2019-03-25T03:42:06.677Z,408.06
2019-03-25T03:43:06.691Z,407.61
2019-03-25T03:44:06.662Z,409.33
2019-03-25T03:45:06.659Z,406.77
2019-03-25T03:46:06.629Z,408.25
2019-03-25T03:47:06.614Z,408.37
2019-03-25T03:48:06.624Z,407.16
2019-03-25T03:49:06.595Z,407.18
2019-03-25T03:50:06.613Z,407.05
2019-03-25T03:51:06.576Z,407.55
2019-03-25T03:52:06.582Z,407.67
2019-03-25T03:53:06.559Z,407.61
2019-03-25T03:54:06.559Z,408.25
2019-03-25T03:55:06.563Z,408.31
2019-03-25T03:56:13.631Z,407.14
2019-03-25T03:57:07.514Z,408.18
2019-03-25T03:58:06.503Z,408.80
2019-03-25T03:59:06.528Z,407.95
2019-03-25T04:00:06.473Z,407.49
2019-03-25T04:01:06.469Z,408.02
2019-03-25T04:02:06.461Z,407.07
2019-03-25T04:03:06.456Z,408.23
2019-03-25T04:04:06.442Z,407.68
2019-03-25T04:05:06.447Z,407.75
2019-03-25T04:06:06.406Z,407.06
2019-03-25T04:07:06.392Z,407.00
2019-03-25T04:08:06.389Z,408.28
2019-03-25T04:09:06.386Z,407.44
2019-03-25T04:10:06.404Z,407.83
2019-03-25T04:11:06.369Z,406.55
2019-03-25T04:12:06.356Z,408.57
2019-03-25T04:13:06.336Z,409.84
2019-03-25T04:14:06.318Z,408.55
2019-03-25T04:15:06.331Z,406.83
2019-03-25T04:16:06.301Z,408.58
2019-03-25T04:17:06.293Z,408.47
2019-03-25T04:18:06.316Z,406.96
2019-03-25T04:19:06.269Z,407.92
2019-03-25T04:20:06.269Z,408.42
2019-03-25T04:21:06.265Z,409.28
2019-03-25T04:22:06.237Z,407.47
2019-03-25T04:23:06.232Z,407.55
2019-03-25T04:24:06.242Z,407.70
2019-03-25T04:25:06.218Z,409.08
2019-03-25T04:26:06.190Z,408.53
2019-03-25T04:27:06.180Z,409.86
2019-03-25T04:28:06.174Z,408.13
2019-03-25T04:29:06.169Z,408.44
2019-03-25T04:30:06.156Z,408.51
2019-03-25T04:31:06.155Z,409.19
2019-03-25T04:32:06.412Z,408.90
2019-03-25T04:33:06.120Z,408.21
2019-03-25T04:34:06.104Z,407.78
2019-03-25T04:35:06.134Z,408.33
2019-03-25T04:36:06.085Z,410.00
2019-03-25T04:37:06.081Z,409.66
2019-03-25T04:38:06.081Z,407.21
2019-03-25T04:39:06.046Z,408.89
2019-03-25T04:40:06.037Z,408.44
2019-03-25T04:41:06.025Z,408.89
2019-03-25T04:42:06.049Z,408.65
2019-03-25T04:43:06.024Z,410.02
2019-03-25T04:44:06.005Z,408.52
2019-03-25T04:45:05.990Z,408.52
2019-03-25T04:46:05.965Z,408.55
2019-03-25T04:47:05.961Z,409.45
2019-03-25T04:48:05.990Z,409.47
2019-03-25T04:49:05.944Z,410.15
2019-03-25T04:50:06.726Z,408.23
2019-03-25T04:51:05.908Z,409.22
2019-03-25T04:52:05.906Z,409.42
2019-03-25T04:53:05.891Z,409.19
2019-03-25T04:54:05.915Z,409.19
2019-03-25T04:55:05.881Z,409.66
2019-03-25T04:56:05.877Z,408.55
2019-03-25T04:57:05.855Z,407.56
2019-03-25T04:58:05.831Z,408.98
2019-03-25T04:59:05.843Z,409.04
2019-03-25T05:00:05.811Z,410.15
2019-03-25T05:01:05.801Z,409.22
2019-03-25T05:02:05.815Z,408.71
2019-03-25T05:03:05.792Z,408.27
2019-03-25T05:04:05.814Z,408.61
2019-03-25T05:05:05.776Z,409.94
2019-03-25T05:06:05.759Z,408.70
2019-03-25T05:07:05.759Z,409.69
2019-03-25T05:08:05.734Z,409.44
2019-03-25T05:09:05.730Z,410.55
2019-03-25T05:10:05.730Z,409.21
2019-03-25T05:11:05.695Z,408.13
2019-03-25T05:12:05.686Z,408.57
2019-03-25T05:13:05.690Z,409.54
2019-03-25T05:14:05.662Z,408.56
2019-03-25T05:15:05.659Z,409.03
2019-03-25T05:16:05.680Z,410.61
2019-03-25T05:17:05.660Z,408.01
2019-03-25T05:18:05.615Z,408.29
2019-03-25T05:19:05.618Z,408.96
2019-03-25T05:20:05.604Z,410.22
2019-03-25T05:21:05.602Z,408.98
2019-03-25T05:22:05.598Z,409.46
2019-03-25T05:23:05.571Z,409.02
2019-03-25T05:24:05.552Z,408.74
2019-03-25T05:25:05.538Z,408.74
2019-03-25T05:26:05.554Z,409.91
2019-03-25T05:27:05.537Z,408.72
2019-03-25T05:28:05.514Z,410.12
2019-03-25T05:29:05.498Z,409.15
2019-03-25T05:30:05.512Z,411.43
2019-03-25T05:31:05.479Z,410.97
2019-03-25T05:32:05.481Z,411.25
2019-03-25T05:33:05.456Z,409.62
2019-03-25T05:34:05.455Z,409.78
2019-03-25T05:35:05.440Z,409.12
2019-03-25T05:36:05.422Z,409.06
2019-03-25T05:37:05.432Z,408.94
2019-03-25T05:38:05.401Z,409.08
2019-03-25T05:39:05.428Z,409.27
2019-03-25T05:40:05.396Z,410.21
2019-03-25T05:41:05.369Z,409.54
2019-03-25T05:42:05.383Z,411.74
2019-03-25T05:43:07.059Z,410.79
2019-03-25T05:44:05.325Z,410.84
2019-03-25T05:45:05.349Z,409.08
2019-03-25T05:46:05.315Z,409.39
2019-03-25T05:47:05.311Z,408.76
2019-03-25T05:48:05.294Z,409.31
2019-03-25T05:49:05.288Z,409.92
2019-03-25T05:50:05.288Z,410.02
2019-03-25T05:51:05.256Z,410.05
2019-03-25T05:52:05.257Z,412.19
2019-03-25T05:53:05.258Z,411.00
2019-03-25T05:54:05.222Z,410.25
2019-03-25T05:55:05.218Z,412.04
2019-03-25T05:56:05.241Z,411.01
2019-03-25T05:57:05.198Z,410.05
2019-03-25T05:58:05.201Z,410.20
2019-03-25T05:59:05.192Z,410.74
2019-03-25T06:00:05.180Z,409.90
2019-03-25T06:01:05.168Z,410.72
2019-03-25T06:02:05.165Z,409.44
2019-03-25T06:03:05.128Z,411.09
2019-03-25T06:04:05.121Z,410.04
2019-03-25T06:05:05.105Z,411.68
2019-03-25T06:06:05.094Z,411.11
2019-03-25T06:07:05.120Z,412.34
2019-03-25T06:08:05.067Z,410.96
2019-03-25T06:09:05.051Z,410.88
2019-03-25T06:10:05.053Z,410.56
2019-03-25T06:11:05.043Z,410.85
2019-03-25T06:12:05.032Z,410.28
2019-03-25T06:13:05.036Z,410.70
2019-03-25T06:14:05.022Z,411.14
2019-03-25T06:15:04.996Z,413.91
2019-03-25T06:16:04.987Z,414.46
2019-03-25T06:17:04.969Z,411.43
2019-03-25T06:18:04.990Z,410.98
2019-03-25T06:19:04.959Z,410.56
2019-03-25T06:20:04.953Z,411.61
2019-03-25T06:21:04.958Z,411.57
2019-03-25T06:22:04.929Z,411.57
2019-03-25T06:23:04.908Z,410.92
2019-03-25T06:24:04.904Z,411.36
2019-03-25T06:25:04.910Z,411.41
2019-03-25T06:26:04.882Z,414.33
2019-03-25T06:27:13.732Z,411.51
2019-03-25T06:28:05.848Z,412.24
2019-03-25T06:29:04.854Z,410.65
2019-03-25T06:30:04.844Z,410.36
2019-03-25T06:31:04.829Z,410.42
2019-03-25T06:32:04.842Z,413.26
2019-03-25T06:33:12.345Z,411.01
2019-03-25T06:34:05.782Z,412.85
2019-03-25T06:35:04.773Z,412.35
2019-03-25T06:36:04.757Z,410.92
2019-03-25T06:37:04.750Z,413.13
2019-03-25T06:38:04.796Z,411.20
2019-03-25T06:39:04.747Z,411.05
2019-03-25T06:40:04.716Z,412.48
2019-03-25T06:41:04.712Z,412.55
2019-03-25T06:42:04.711Z,411.69
2019-03-25T06:43:04.716Z,411.26
2019-03-25T06:44:04.713Z,411.97
2019-03-25T06:45:04.674Z,411.44
2019-03-25T06:46:04.658Z,411.34
2019-03-25T06:47:04.646Z,410.83
2019-03-25T06:48:04.629Z,409.64
2019-03-25T06:49:04.616Z,410.15
2019-03-25T06:50:04.643Z,409.85
2019-03-25T06:51:04.609Z,410.34
2019-03-25T06:52:04.602Z,410.46
2019-03-25T06:53:04.593Z,410.01
2019-03-25T06:54:04.577Z,410.25
2019-03-25T06:55:04.559Z,409.70
2019-03-25T06:56:04.657Z,410.00
2019-03-25T06:57:04.543Z,411.35
2019-03-25T06:58:04.523Z,412.08
2019-03-25T06:59:04.529Z,411.04
2019-03-25T07:00:04.532Z,410.70
2019-03-25T07:01:04.496Z,411.38
2019-03-25T07:02:04.505Z,410.24
2019-03-25T07:03:04.477Z,410.21
2019-03-25T07:04:04.469Z,410.66
2019-03-25T07:05:04.458Z,411.34
2019-03-25T07:06:04.449Z,410.39
2019-03-25T07:07:04.426Z,410.66
2019-03-25T07:08:04.418Z,410.43
2019-03-25T07:09:04.426Z,409.58
2019-03-25T07:10:04.402Z,410.88
2019-03-25T07:11:04.405Z,410.11
2019-03-25T07:12:04.367Z,411.45
2019-03-25T07:13:04.367Z,410.03
2019-03-25T07:14:04.439Z,411.07
2019-03-25T07:15:04.397Z,412.12
2019-03-25T07:16:04.352Z,412.30
2019-03-25T07:17:04.325Z,412.22
2019-03-25T07:18:04.306Z,411.36
2019-03-25T07:19:04.300Z,411.51
2019-03-25T07:20:04.285Z,411.07
2019-03-25T07:21:04.293Z,411.50
2019-03-25T07:22:04.290Z,411.33
2019-03-25T07:23:04.264Z,410.98
2019-03-25T07:24:04.285Z,411.79
2019-03-25T07:25:04.241Z,411.33
2019-03-25T07:26:04.249Z,412.29
2019-03-25T07:27:04.214Z,412.06
2019-03-25T07:28:04.213Z,411.14
2019-03-25T07:29:04.219Z,412.09
2019-03-25T07:30:04.225Z,410.58
2019-03-25T07:31:04.160Z,410.95
2019-03-25T07:32:04.171Z,410.82
2019-03-25T07:33:05.190Z,412.82
2019-03-25T07:34:04.248Z,411.61
2019-03-25T07:35:04.251Z,410.69
2019-03-25T07:36:04.804Z,411.49
2019-03-25T07:37:04.108Z,410.85
2019-03-25T07:38:04.816Z,411.01
2019-03-25T07:39:04.726Z,411.89
2019-03-25T07:40:04.078Z,410.94
2019-03-25T07:41:04.077Z,411.73
2019-03-25T07:42:04.051Z,411.45
2019-03-25T07:43:04.071Z,409.84
2019-03-25T07:44:04.026Z,412.30
2019-03-25T07:45:04.014Z,411.57
2019-03-25T07:46:04.008Z,413.62
2019-03-25T07:47:04.005Z,409.98
2019-03-25T07:48:04.315Z,413.39
2019-03-25T07:49:03.983Z,411.75
2019-03-25T07:50:03.958Z,413.72
2019-03-25T07:51:03.970Z,411.18
2019-03-25T07:52:03.930Z,411.40
2019-03-25T07:53:03.922Z,413.03
2019-03-25T07:54:03.954Z,411.21
2019-03-25T07:55:03.925Z,411.02
2019-03-25T07:56:03.933Z,412.45
2019-03-25T07:57:03.908Z,412.38
2019-03-25T07:58:03.874Z,411.79
2019-03-25T07:59:03.867Z,412.31
2019-03-25T08:00:13.133Z,413.70
2019-03-25T08:01:04.846Z,410.83
2019-03-25T08:02:03.840Z,411.32
2019-03-25T08:03:03.827Z,411.75
2019-03-25T08:04:03.856Z,412.08
2019-03-25T08:05:03.808Z,411.43
2019-03-25T08:06:03.817Z,412.90
2019-03-25T08:07:03.786Z,413.55
2019-03-25T08:08:03.807Z,411.88
2019-03-25T08:09:04.255Z,412.31
2019-03-25T08:10:03.762Z,411.42
2019-03-25T08:11:03.771Z,414.34
2019-03-25T08:12:03.750Z,414.13
2019-03-25T08:13:04.758Z,411.86
2019-03-25T08:14:03.744Z,414.85
2019-03-25T08:15:03.727Z,410.37
2019-03-25T08:16:03.694Z,412.23
2019-03-25T08:17:03.670Z,410.90
2019-03-25T08:18:03.663Z,409.54
2019-03-25T08:19:03.681Z,414.05
2019-03-25T08:20:03.637Z,412.14
2019-03-25T08:21:03.624Z,414.12
2019-03-25T08:22:03.607Z,409.26
2019-03-25T08:23:03.594Z,410.49
2019-03-25T08:24:03.592Z,411.28
2019-03-25T08:25:03.600Z,410.10
2019-03-25T08:26:03.592Z,411.21
2019-03-25T08:27:03.567Z,411.50
2019-03-25T08:28:03.559Z,410.75
2019-03-25T08:29:03.546Z,412.74
2019-03-25T08:30:03.523Z,411.35
2019-03-25T08:31:03.537Z,413.60
2019-03-25T08:32:03.525Z,410.35
2019-03-25T08:33:03.506Z,409.69
2019-03-25T08:34:03.474Z,410.88
2019-03-25T08:35:03.464Z,410.70
2019-03-25T08:36:03.478Z,412.71
2019-03-25T08:37:04.491Z,411.16
2019-03-25T08:38:03.464Z,410.23
2019-03-25T08:39:03.425Z,410.01
2019-03-25T08:40:03.418Z,411.30
2019-03-25T08:41:03.412Z,409.32
2019-03-25T08:42:03.381Z,410.78
2019-03-25T08:43:03.413Z,409.07
2019-03-25T08:44:03.378Z,410.05
2019-03-25T08:45:03.347Z,411.62
2019-03-25T08:46:03.362Z,411.70
2019-03-25T08:47:03.369Z,410.25
2019-03-25T08:48:03.326Z,410.02
2019-03-25T08:49:03.332Z,410.75
2019-03-25T08:50:03.315Z,410.12
2019-03-25T08:51:03.300Z,411.38
2019-03-25T08:52:03.289Z,409.69
2019-03-25T08:53:03.302Z,410.29
2019-03-25T08:54:03.261Z,410.34
2019-03-25T08:55:03.252Z,410.83
2019-03-25T08:56:03.244Z,411.82
2019-03-25T08:57:03.233Z,412.55
2019-03-25T08:58:12.012Z,412.01
2019-03-25T08:59:04.213Z,411.56
2019-03-25T09:00:03.239Z,411.36
2019-03-25T09:01:03.193Z,411.85
2019-03-25T09:02:03.167Z,413.45
2019-03-25T09:03:03.162Z,410.09
2019-03-25T09:04:03.155Z,412.76
2019-03-25T09:05:03.149Z,414.81
2019-03-25T09:06:03.152Z,411.62
2019-03-25T09:07:03.208Z,410.75
2019-03-25T09:08:03.108Z,412.23
2019-03-25T09:09:03.096Z,410.71
2019-03-25T09:10:03.095Z,411.60
2019-03-25T09:11:03.102Z,413.56
2019-03-25T09:12:03.071Z,413.46
2019-03-25T09:13:03.078Z,414.60
2019-03-25T09:14:03.043Z,412.10
2019-03-25T09:15:03.042Z,412.47
2019-03-25T09:16:03.014Z,411.30
2019-03-25T09:17:03.008Z,413.90
2019-03-25T09:18:03.022Z,411.60
2019-03-25T09:19:02.997Z,412.38
2019-03-25T09:20:02.973Z,411.33
2019-03-25T09:21:02.976Z,410.94
2019-03-25T09:22:02.964Z,411.06
2019-03-25T09:23:02.986Z,410.64
2019-03-25T09:24:02.957Z,412.19
2019-03-25T09:25:02.932Z,415.56
2019-03-25T09:26:02.907Z,410.05
2019-03-25T09:27:02.911Z,413.78
2019-03-25T09:28:02.879Z,409.80
2019-03-25T09:29:02.907Z,411.57
2019-03-25T09:30:03.671Z,414.56
2019-03-25T09:31:02.864Z,412.40
2019-03-25T09:32:02.851Z,411.48
2019-03-25T09:33:02.857Z,411.69
2019-03-25T09:34:02.819Z,412.50
2019-03-25T09:35:02.840Z,412.22
2019-03-25T09:36:02.930Z,411.20
2019-03-25T09:37:02.800Z,412.90
2019-03-25T09:38:02.775Z,413.10
2019-03-25T09:39:02.779Z,411.90
2019-03-25T09:40:02.777Z,416.63
2019-03-25T09:41:02.742Z,414.56
2019-03-25T09:42:02.737Z,411.82
2019-03-25T09:43:02.747Z,414.18
2019-03-25T09:44:02.735Z,414.21
2019-03-25T09:45:02.749Z,413.67
2019-03-25T09:46:02.691Z,416.60
2019-03-25T09:47:02.687Z,417.02
2019-03-25T09:48:02.674Z,414.05
2019-03-25T09:49:02.662Z,415.60
2019-03-25T09:50:02.657Z,412.92
2019-03-25T09:51:02.665Z,417.97
2019-03-25T09:52:02.616Z,410.18
2019-03-25T09:53:02.611Z,413.11
2019-03-25T09:54:02.611Z,412.28
2019-03-25T09:55:02.597Z,412.72
2019-03-25T09:56:02.612Z,413.91
2019-03-25T09:57:02.593Z,413.92
2019-03-25T09:58:02.559Z,414.40
2019-03-25T09:59:02.550Z,414.80
2019-03-25T10:00:02.549Z,416.72
2019-03-25T10:01:02.527Z,414.30
2019-03-25T10:02:02.552Z,410.56
2019-03-25T10:03:02.530Z,410.20
2019-03-25T10:04:02.491Z,412.54
2019-03-25T10:05:02.489Z,414.80
2019-03-25T10:06:02.468Z,412.07
2019-03-25T10:07:02.458Z,411.20
2019-03-25T10:08:02.476Z,409.08
2019-03-25T10:09:02.441Z,412.26
2019-03-25T10:10:02.418Z,413.77
2019-03-25T10:11:02.413Z,412.49
2019-03-25T10:12:02.409Z,413.43
2019-03-25T10:13:02.407Z,410.20
2019-03-25T10:14:02.393Z,411.87
2019-03-25T10:15:02.404Z,410.82
2019-03-25T10:16:02.365Z,411.12
2019-03-25T10:17:02.362Z,413.60
2019-03-25T10:18:02.342Z,409.33
2019-03-25T10:19:02.330Z,415.00
2019-03-25T10:20:02.514Z,414.29
2019-03-25T10:21:02.317Z,409.09
2019-03-25T10:22:02.476Z,414.15
2019-03-25T10:23:02.318Z,413.14
2019-03-25T10:24:02.842Z,412.05
2019-03-25T10:25:02.255Z,413.62
2019-03-25T10:26:02.256Z,411.67
2019-03-25T10:27:02.278Z,410.67
2019-03-25T10:28:02.242Z,412.35
2019-03-25T10:29:02.222Z,410.77
2019-03-25T10:30:02.215Z,413.73
2019-03-25T10:31:02.195Z,411.49
2019-03-25T10:32:02.175Z,411.47
2019-03-25T10:33:02.205Z,411.54
2019-03-25T10:34:02.171Z,410.76
2019-03-25T10:35:02.164Z,413.81
2019-03-25T10:36:02.157Z,410.97
2019-03-25T10:37:02.147Z,410.98
2019-03-25T10:38:02.148Z,412.67
2019-03-25T10:39:02.177Z,413.76
2019-03-25T10:40:02.107Z,409.51
2019-03-25T10:41:02.101Z,412.85
2019-03-25T10:42:02.072Z,413.03
2019-03-25T10:43:02.063Z,411.11
2019-03-25T10:44:02.090Z,413.64
2019-03-25T10:45:02.067Z,413.00
2019-03-25T10:46:02.032Z,411.61
2019-03-25T10:47:02.037Z,409.21
2019-03-25T10:48:02.022Z,417.69
2019-03-25T10:49:01.998Z,411.73
2019-03-25T10:50:02.003Z,417.68
2019-03-25T10:51:01.971Z,415.23
2019-03-25T10:52:01.967Z,413.84
2019-03-25T10:53:01.948Z,417.28
2019-03-25T10:54:01.957Z,412.00
2019-03-25T10:55:01.957Z,419.12
2019-03-25T10:56:01.920Z,419.12
2019-03-25T10:57:01.897Z,417.66
2019-03-25T10:58:01.901Z,411.78
2019-03-25T10:59:01.894Z,417.79
2019-03-25T11:00:01.889Z,417.83
2019-03-25T11:01:01.865Z,413.87
2019-03-25T11:02:01.905Z,419.31
2019-03-25T11:03:01.843Z,417.19
2019-03-25T11:04:01.820Z,420.05
2019-03-25T11:05:01.805Z,414.22
2019-03-25T11:06:01.820Z,409.31
2019-03-25T11:07:01.908Z,419.55
2019-03-25T11:08:01.840Z,418.95
2019-03-25T11:09:01.778Z,424.26
2019-03-25T11:10:01.765Z,420.40
2019-03-25T11:11:01.751Z,398.51
2019-03-25T11:12:01.739Z,409.43
2019-03-25T11:13:01.738Z,415.50
2019-03-25T11:14:01.737Z,416.63
2019-03-25T11:15:01.714Z,416.04
2019-03-25T11:16:01.736Z,410.52
2019-03-25T11:17:01.678Z,408.55
2019-03-25T11:18:01.690Z,411.14
2019-03-25T11:19:01.696Z,415.23
2019-03-25T11:20:01.660Z,406.91
2019-03-25T11:21:01.685Z,411.36
2019-03-25T11:22:01.631Z,407.08
2019-03-25T11:23:01.614Z,414.16
2019-03-25T11:24:01.613Z,411.94
2019-03-25T11:25:01.594Z,411.30
2019-03-25T11:26:01.590Z,413.83
2019-03-25T11:27:01.596Z,413.09
2019-03-25T11:28:01.563Z,408.73
2019-03-25T11:29:08.304Z,410.27
2019-03-25T11:30:02.547Z,410.88
2019-03-25T11:31:01.548Z,406.46
2019-03-25T11:32:01.545Z,402.70
2019-03-25T11:33:01.520Z,414.44
2019-03-25T11:34:01.506Z,411.17
2019-03-25T11:35:01.491Z,412.87
2019-03-25T11:36:02.780Z,418.50
2019-03-25T11:37:01.492Z,403.42
2019-03-25T11:38:01.460Z,404.30
2019-03-25T11:39:01.476Z,426.40
2019-03-25T11:40:01.441Z,418.23
2019-03-25T11:41:01.423Z,399.67
2019-03-25T11:42:01.410Z,404.58
2019-03-25T11:43:01.421Z,413.22
2019-03-25T11:44:01.402Z,419.87
2019-03-25T11:45:01.381Z,422.66
2019-03-25T11:46:01.354Z,411.06
2019-03-25T11:47:01.350Z,404.28
2019-03-25T11:48:01.343Z,412.38
2019-03-25T11:49:01.351Z,416.31
2019-03-25T11:50:01.337Z,413.51
2019-03-25T11:51:01.329Z,416.11
2019-03-25T11:52:01.305Z,414.67
2019-03-25T11:53:01.299Z,411.90
2019-03-25T11:54:01.303Z,412.66
2019-03-25T11:55:01.269Z,414.04
2019-03-25T11:56:01.260Z,415.10
2019-03-25T11:57:01.249Z,411.52
2019-03-25T11:58:01.260Z,416.65
2019-03-25T11:59:03.001Z,406.39
2019-03-25T12:00:01.243Z,405.19
2019-03-25T12:01:01.192Z,410.19
2019-03-25T12:02:01.198Z,407.21
2019-03-25T12:03:01.200Z,401.05
2019-03-25T12:04:01.180Z,404.11
2019-03-25T12:05:01.191Z,407.77
2019-03-25T12:06:01.153Z,408.29
2019-03-25T12:07:01.159Z,399.70
2019-03-25T12:08:01.134Z,406.71
2019-03-25T12:09:01.131Z,401.97
2019-03-25T12:10:01.110Z,408.77
2019-03-25T12:11:01.091Z,403.95
2019-03-25T12:12:01.117Z,396.64
2019-03-25T12:13:01.080Z,402.17
2019-03-25T12:14:01.076Z,405.89
2019-03-25T12:15:01.753Z,406.57
2019-03-25T12:16:01.051Z,409.23
2019-03-25T12:17:01.027Z,402.75
2019-03-25T12:18:01.055Z,403.46
2019-03-25T12:19:01.021Z,405.55
2019-03-25T12:20:01.006Z,403.01
2019-03-25T12:21:00.991Z,408.75
2019-03-25T12:22:01.019Z,402.31
2019-03-25T12:23:00.998Z,402.16
2019-03-25T12:24:00.966Z,401.65
2019-03-25T12:25:00.947Z,402.24
2019-03-25T12:26:00.963Z,402.14
2019-03-25T12:27:00.933Z,403.48
2019-03-25T12:28:00.926Z,404.46